Wan Hai 273 — 9V7586 — position and weather

sailwx.info

Track history (hours):
 
Tides and Currents Weather Stations Pressure Air Temp Water Temp Dewpoint Dewpoint Depression Visibility Wind Speed Wind Dir Waves Ship Positions

Wan Hai 273

Last reported at 2015-Feb-26 02:28 UTC. Time now 2015-Mar-01 07:00 UTC.
Position N 24°21' E 119°14'.

Length 172 m; draft 7.2 m.

Type: Cargo ship. MMSI: 566406000.

Date/timePositionNaut miles runAvg speedWind from/ knotsBaromVisibWave heightAir tempDewpointWater temp
2015-Feb-26 02:28N 24°21' E 119°14'5618.8
2015-Feb-25 23:30N 23°44' E 118°28'10617.8
2015-Feb-25 17:32N 22°48' E 116°50'14117.0
2015-Feb-25 09:13N 22°07' E 114°24'1414.6
2015-Feb-25 08:17N 22°12' E 114°10'810.9
2015-Feb-25 07:33N 22°19' E 114°05'1211.7
2015-Feb-25 06:33N 22°23' E 113°54'4 3.6
2015-Feb-25 05:22N 22°28' E 113°54'0 0.0
2015-Feb-25 04:28N 22°28' E 113°54'0 0.0
2015-Feb-25 03:28N 22°28' E 113°54'0 0.0
2015-Feb-25 02:28N 22°28' E 113°54'0 0.0
2015-Feb-25 01:28N 22°28' E 113°54'0 0.0
2015-Feb-25 00:28N 22°28' E 113°54'0 0.0
2015-Feb-24 23:28N 22°28' E 113°54'0 0.0
2015-Feb-24 22:22N 22°28' E 113°54'0 0.0
2015-Feb-24 21:28N 22°28' E 113°54'1 1.5
2015-Feb-24 20:33N 22°27' E 113°53'7 6.7
2015-Feb-24 19:33N 22°21' E 113°57'6 6.3
2015-Feb-24 18:31N 22°20' E 114°04'0 0.1
2015-Feb-24 17:31N 22°20' E 114°04'3 3.1
2015-Feb-24 16:33N 22°20' E 114°07'0 0.1
2015-Feb-24 15:16N 22°20' E 114°07'0 0.0
2015-Feb-24 12:07N 22°20' E 114°07'0 0.0
2015-Feb-24 11:28N 22°21' E 114°07'0 0.0
2015-Feb-24 10:28N 22°20' E 114°07'0 0.0
2015-Feb-24 08:04N 22°20' E 114°07'2 3.1
2015-Feb-24 07:34N 22°19' E 114°06'1310.4
2015-Feb-24 06:21N 22°08' E 114°14'  
Track history (hours):
 
Tides and Currents Weather Stations Pressure Air Temp Water Temp Dewpoint Dewpoint Depression Visibility Wind Speed Wind Dir Waves Ship Positions

Wan Hai 273

Last reported at 2015-Feb-26 02:28 UTC. Time now 2015-Mar-01 07:00 UTC.
Position N 24°21' E 119°14'.

Length 172 m; draft 7.2 m.

Type: Cargo ship. MMSI: 566406000.

Date/timePositionNaut miles runAvg speedWind from/ knotsBaromVisibWave heightAir tempDewpointWater temp
2015-Feb-26 02:28N 24°21' E 119°14'5618.8
2015-Feb-25 23:30N 23°44' E 118°28'10617.8
2015-Feb-25 17:32N 22°48' E 116°50'14117.0
2015-Feb-25 09:13N 22°07' E 114°24'1414.6
2015-Feb-25 08:17N 22°12' E 114°10'810.9
2015-Feb-25 07:33N 22°19' E 114°05'1211.7
2015-Feb-25 06:33N 22°23' E 113°54'4 3.6
2015-Feb-25 05:22N 22°28' E 113°54'0 0.0
2015-Feb-25 04:28N 22°28' E 113°54'0 0.0
2015-Feb-25 03:28N 22°28' E 113°54'0 0.0
2015-Feb-25 02:28N 22°28' E 113°54'0 0.0
2015-Feb-25 01:28N 22°28' E 113°54'0 0.0
2015-Feb-25 00:28N 22°28' E 113°54'0 0.0
2015-Feb-24 23:28N 22°28' E 113°54'0 0.0
2015-Feb-24 22:22N 22°28' E 113°54'0 0.0
2015-Feb-24 21:28N 22°28' E 113°54'1 1.5
2015-Feb-24 20:33N 22°27' E 113°53'7 6.7
2015-Feb-24 19:33N 22°21' E 113°57'6 6.3
2015-Feb-24 18:31N 22°20' E 114°04'0 0.1
2015-Feb-24 17:31N 22°20' E 114°04'3 3.1
2015-Feb-24 16:33N 22°20' E 114°07'0 0.1
2015-Feb-24 15:16N 22°20' E 114°07'0 0.0
2015-Feb-24 12:07N 22°20' E 114°07'0 0.0
2015-Feb-24 11:28N 22°21' E 114°07'0 0.0
2015-Feb-24 10:28N 22°20' E 114°07'0 0.0
2015-Feb-24 08:04N 22°20' E 114°07'2 3.1
2015-Feb-24 07:34N 22°19' E 114°06'1310.4
2015-Feb-24 06:21N 22°08' E 114°14'  

Dump ship's entire track history